Time;durP1;ratioP1;P1;durP2;ratioP2;P2;SDS_P1;SDS_P2;PMS_P1;PMS_P2;Temp;Humidity;BMP_temperature;BMP_pressure;BME280_temperature;BME280_humidity;BME280_pressure;Samples;Min_cycle;Max_cycle;Signal;HPM_P1;HPM_P2
2023/06/25 00:00:51;;;;;;;9.23;6.05;;;17.30;99.90;;;;;;5031101;28;20527;-80
2023/06/25 00:03:16;;;;;;;13.35;9.57;;;17.20;99.90;;;;;;5032437;28;20075;-81
2023/06/25 00:05:44;;;;;;;16.10;10.57;;;17.10;99.90;;;;;;5036580;28;20059;-81
2023/06/25 00:08:10;;;;;;;14.73;10.00;;;16.90;99.90;;;;;;5034066;28;20044;-81
2023/06/25 00:10:36;;;;;;;14.68;10.65;;;16.90;99.90;;;;;;5033097;28;20071;-81
2023/06/25 00:13:02;;;;;;;13.88;10.48;;;16.90;99.90;;;;;;5015377;28;20041;-81
2023/06/25 00:15:30;;;;;;;15.32;10.57;;;16.90;99.90;;;;;;5053280;28;20048;-81
2023/06/25 00:17:56;;;;;;;15.07;10.90;;;16.90;99.90;;;;;;5031960;28;20045;-80
2023/06/25 00:20:23;;;;;;;13.40;9.90;;;16.90;99.90;;;;;;5033029;28;20078;-80
2023/06/25 00:22:49;;;;;;;12.02;9.35;;;16.80;99.90;;;;;;5022286;28;20052;-81
2023/06/25 00:25:16;;;;;;;13.43;9.93;;;16.80;99.90;;;;;;5022213;28;20083;-81
2023/06/25 00:27:48;;;;;;;14.35;10.23;;;16.90;99.90;;;;;;5035197;28;20443;-80
2023/06/25 00:30:17;;;;;;;14.85;10.25;;;16.90;99.90;;;;;;5019790;28;20091;-81
2023/06/25 00:32:43;;;;;;;14.48;10.38;;;16.90;99.90;;;;;;5034843;28;20139;-80
2023/06/25 00:35:10;;;;;;;15.18;10.40;;;16.80;99.90;;;;;;5034972;28;20509;-80
2023/06/25 00:37:37;;;;;;;14.55;10.45;;;16.70;99.90;;;;;;5055365;28;20045;-80
2023/06/25 00:40:05;;;;;;;15.70;10.38;;;16.70;99.90;;;;;;5019334;28;20055;-80
2023/06/25 00:42:42;;;;;;;13.32;10.57;;;16.70;99.90;;;;;;5036105;28;20036;-80
2023/06/25 00:45:15;;;;;;;14.98;10.18;;;16.80;99.90;;;;;;5030605;28;20477;-80
2023/06/25 00:47:42;;;;;;;12.70;10.43;;;16.80;99.90;;;;;;5034410;28;20120;-80
2023/06/25 00:50:11;;;;;;;13.95;10.25;;;16.80;99.90;;;;;;5036940;28;20495;-80
2023/06/25 00:52:40;;;;;;;14.07;10.63;;;16.70;99.90;;;;;;5033166;28;20444;-81
2023/06/25 00:55:08;;;;;;;12.00;9.00;;;16.80;99.90;;;;;;5033543;28;20106;-81
2023/06/25 00:57:34;;;;;;;15.60;10.90;;;16.50;99.90;;;;;;5033977;28;20060;-80
2023/06/25 01:00:00;;;;;;;11.57;9.65;;;16.60;99.90;;;;;;5034398;28;20056;-80
2023/06/25 01:02:38;;;;;;;10.43;7.60;;;16.50;99.90;;;;;;5035723;28;20071;-81
2023/06/25 01:05:17;;;;;;;12.10;9.05;;;16.50;99.90;;;;;;5033217;28;20127;-80
2023/06/25 01:07:45;;;;;;;10.57;7.40;;;16.50;99.90;;;;;;5068083;28;20082;-81
2023/06/25 01:10:11;;;;;;;12.13;8.05;;;16.50;99.90;;;;;;5021693;28;20480;-81
2023/06/25 01:12:38;;;;;;;11.38;8.25;;;16.40;99.90;;;;;;5031603;28;20114;-80
2023/06/25 01:15:04;;;;;;;9.80;8.07;;;16.30;99.90;;;;;;5020773;28;20048;-81
2023/06/25 01:17:30;;;;;;;14.02;9.82;;;16.40;99.90;;;;;;5022726;28;20480;-81
2023/06/25 01:19:56;;;;;;;12.68;10.18;;;16.40;99.90;;;;;;5034170;28;20041;-80
2023/06/25 01:22:29;;;;;;;14.63;10.35;;;16.40;99.90;;;;;;5040782;28;20090;-81
2023/06/25 01:24:56;;;;;;;15.02;11.88;;;16.40;99.90;;;;;;5026083;28;20048;-81
2023/06/25 01:27:22;;;;;;;16.40;11.40;;;16.40;99.90;;;;;;5025663;28;20040;-81
2023/06/25 01:29:48;;;;;;;14.30;10.85;;;16.40;99.90;;;;;;5024831;28;20379;-81
2023/06/25 01:32:15;;;;;;;15.88;11.82;;;16.30;99.90;;;;;;5041227;28;20036;-81
2023/06/25 01:34:40;;;;;;;15.02;10.07;;;16.30;99.90;;;;;;5039355;28;20136;-80
2023/06/25 01:37:06;;;;;;;13.70;10.43;;;16.30;99.90;;;;;;5040653;28;20055;-81
2023/06/25 01:39:35;;;;;;;15.18;11.20;;;16.30;99.90;;;;;;5022113;28;20040;-80
2023/06/25 01:42:00;;;;;;;12.98;9.48;;;16.30;99.90;;;;;;5030919;28;20040;-80
2023/06/25 01:44:28;;;;;;;16.65;11.65;;;16.30;99.90;;;;;;5036026;28;20040;-80
2023/06/25 01:46:55;;;;;;;14.10;11.25;;;16.30;99.90;;;;;;5020558;28;20056;-81
2023/06/25 01:49:21;;;;;;;13.30;10.77;;;16.30;99.90;;;;;;5022699;28;20044;-81
2023/06/25 01:51:47;;;;;;;14.88;11.95;;;16.20;99.90;;;;;;5023804;28;20265;-81
2023/06/25 01:54:19;;;;;;;15.20;10.05;;;16.20;99.90;;;;;;5054654;28;20439;-80
2023/06/25 01:56:44;;;;;;;14.30;11.55;;;16.10;99.90;;;;;;5027413;28;20044;-81
2023/06/25 01:59:10;;;;;;;13.75;11.23;;;16.20;99.90;;;;;;5017312;28;20041;-81
2023/06/25 02:01:37;;;;;;;14.32;10.20;;;16.10;99.90;;;;;;5020336;28;20483;-80
2023/06/25 02:04:03;;;;;;;16.67;12.05;;;16.10;99.90;;;;;;5058987;28;20186;-80
2023/06/25 02:06:28;;;;;;;18.00;11.52;;;16.10;99.90;;;;;;5040830;28;20159;-80
2023/06/25 02:08:54;;;;;;;14.05;10.60;;;16.10;99.90;;;;;;5042356;28;20264;-80
2023/06/25 02:11:20;;;;;;;16.60;12.40;;;16.00;99.90;;;;;;5026424;28;20044;-81
2023/06/25 02:13:45;;;;;;;13.20;10.82;;;16.00;99.90;;;;;;5048607;28;20400;-80
2023/06/25 02:16:11;;;;;;;16.88;11.95;;;16.00;99.90;;;;;;5039536;28;20097;-81
2023/06/25 02:18:37;;;;;;;16.58;12.52;;;16.00;99.90;;;;;;5038444;28;20047;-81
2023/06/25 02:21:03;;;;;;;13.15;10.63;;;16.00;99.90;;;;;;5068484;28;20036;-80
2023/06/25 02:23:29;;;;;;;12.15;9.73;;;15.90;99.90;;;;;;5038132;28;20040;-81
2023/06/25 02:25:54;;;;;;;13.82;9.98;;;15.90;99.90;;;;;;5037094;28;20174;-81
2023/06/25 02:28:20;;;;;;;15.80;11.10;;;15.90;99.90;;;;;;5033588;28;20079;-81
2023/06/25 02:30:46;;;;;;;15.88;11.57;;;15.90;99.90;;;;;;5023699;28;20064;-80
2023/06/25 02:33:12;;;;;;;14.60;11.63;;;15.90;99.90;;;;;;5017907;28;20115;-81
2023/06/25 02:35:38;;;;;;;17.45;12.90;;;15.90;99.90;;;;;;5035273;28;20032;-79
2023/06/25 02:38:03;;;;;;;16.20;11.82;;;15.90;99.90;;;;;;5058133;28;20036;-80
2023/06/25 02:40:29;;;;;;;17.45;12.68;;;15.80;99.90;;;;;;5022097;28;20483;-80
2023/06/25 02:42:56;;;;;;;14.10;10.98;;;15.80;99.90;;;;;;5032359;28;20041;-80
2023/06/25 02:45:25;;;;;;;16.00;12.05;;;15.80;99.90;;;;;;5019186;28;20053;-80
2023/06/25 02:47:50;;;;;;;16.70;12.65;;;15.80;99.90;;;;;;5036443;28;20076;-80
2023/06/25 02:50:19;;;;;;;18.75;13.32;;;15.80;99.90;;;;;;5033072;28;20128;-80
2023/06/25 02:52:48;;;;;;;16.17;12.65;;;15.80;99.90;;;;;;5052050;28;20147;-81
2023/06/25 02:55:13;;;;;;;20.52;13.63;;;15.80;99.90;;;;;;5015864;28;20493;-80
2023/06/25 02:57:39;;;;;;;18.23;13.98;;;15.80;99.90;;;;;;5033483;28;20033;-80
2023/06/25 03:00:08;;;;;;;13.82;10.80;;;15.70;99.90;;;;;;5031764;28;20478;-80
2023/06/25 03:02:34;;;;;;;16.70;12.35;;;15.70;99.90;;;;;;5064027;28;20035;-80
2023/06/25 03:05:00;;;;;;;17.80;13.23;;;15.70;99.90;;;;;;5034220;28;20040;-80
2023/06/25 03:07:25;;;;;;;17.08;11.52;;;15.80;99.90;;;;;;5034575;28;20033;-80
2023/06/25 03:09:51;;;;;;;11.75;8.43;;;15.70;99.90;;;;;;5035882;28;20528;-80
2023/06/25 03:12:17;;;;;;;14.77;9.48;;;15.70;99.90;;;;;;5020522;28;20508;-80
2023/06/25 03:14:42;;;;;;;15.88;12.60;;;15.60;99.90;;;;;;5033044;28;20037;-80
2023/06/25 03:17:08;;;;;;;15.93;11.27;;;15.70;99.90;;;;;;5034501;28;20454;-81
2023/06/25 03:19:34;;;;;;;12.77;10.35;;;15.70;99.90;;;;;;5020445;28;20041;-81
2023/06/25 03:22:00;;;;;;;16.60;11.85;;;15.70;99.90;;;;;;5020237;28;20122;-80
2023/06/25 03:24:26;;;;;;;15.45;11.95;;;15.70;99.90;;;;;;5033171;28;20339;-80
2023/06/25 03:26:51;;;;;;;18.73;12.55;;;15.80;99.90;;;;;;5033680;28;20052;-80
2023/06/25 03:29:17;;;;;;;12.80;10.18;;;15.70;99.90;;;;;;5032184;28;20572;-80
2023/06/25 03:31:43;;;;;;;18.42;12.35;;;15.80;99.90;;;;;;5035225;28;20056;-80
2023/06/25 03:34:09;;;;;;;19.17;13.52;;;15.80;99.90;;;;;;5031665;28;20128;-80
2023/06/25 03:36:34;;;;;;;18.80;13.60;;;15.80;99.90;;;;;;5033041;28;20506;-80
2023/06/25 03:39:00;;;;;;;17.27;13.57;;;15.90;99.90;;;;;;5020257;28;20041;-80
2023/06/25 03:41:26;;;;;;;21.80;15.45;;;15.90;99.90;;;;;;5029569;28;20412;-80
2023/06/25 03:43:52;;;;;;;20.60;14.43;;;15.90;99.90;;;;;;5028625;28;20517;-80
2023/06/25 03:46:17;;;;;;;20.77;15.02;;;15.90;99.90;;;;;;5030237;28;20047;-80
2023/06/25 03:48:44;;;;;;;18.67;13.93;;;15.90;99.90;;;;;;5018309;28;20041;-80
2023/06/25 03:51:10;;;;;;;20.25;14.80;;;16.00;99.90;;;;;;5036872;28;20049;-80
2023/06/25 03:53:38;;;;;;;22.15;14.88;;;16.00;99.90;;;;;;5032379;28;20087;-80
2023/06/25 03:56:04;;;;;;;22.20;15.23;;;16.00;99.90;;;;;;5032483;28;20037;-81
2023/06/25 03:58:30;;;;;;;20.90;13.32;;;16.10;99.90;;;;;;5028663;28;20091;-80
2023/06/25 04:00:55;;;;;;;20.15;13.27;;;16.10;99.90;;;;;;5029876;28;20700;-81
2023/06/25 04:03:21;;;;;;;16.05;11.80;;;16.20;99.90;;;;;;5018779;28;20127;-80
2023/06/25 04:05:48;;;;;;;18.50;13.18;;;16.20;99.90;;;;;;5048321;28;20043;-80
2023/06/25 04:08:14;;;;;;;20.10;13.85;;;16.30;99.90;;;;;;5032408;28;20037;-80
2023/06/25 04:10:40;;;;;;;19.52;13.93;;;16.30;99.90;;;;;;5030343;28;20104;-80
2023/06/25 04:13:06;;;;;;;19.13;12.45;;;16.40;99.90;;;;;;5034142;28;20044;-80
2023/06/25 04:15:32;;;;;;;19.85;13.40;;;16.40;99.90;;;;;;5014746;28;20048;-80
2023/06/25 04:17:58;;;;;;;18.30;13.07;;;16.50;99.90;;;;;;5028362;28;20633;-80
2023/06/25 04:20:26;;;;;;;21.83;13.35;;;16.60;99.90;;;;;;5015970;28;20043;-80
2023/06/25 04:22:52;;;;;;;19.02;13.90;;;16.70;99.90;;;;;;5028346;28;20095;-80
2023/06/25 04:25:18;;;;;;;21.17;14.30;;;16.80;99.90;;;;;;5017615;28;20359;-80
2023/06/25 04:27:47;;;;;;;22.30;13.85;;;16.90;99.90;;;;;;5017825;28;20463;-80
2023/06/25 04:30:13;;;;;;;21.38;14.40;;;17.00;99.90;;;;;;5032377;28;20411;-80
2023/06/25 04:32:39;;;;;;;21.67;14.18;;;17.10;99.90;;;;;;5034623;28;20051;-80
2023/06/25 04:35:05;;;;;;;21.02;14.10;;;17.20;99.90;;;;;;5034745;28;20465;-80
2023/06/25 04:37:31;;;;;;;21.08;13.63;;;17.30;99.90;;;;;;5036515;28;20040;-80
2023/06/25 04:39:56;;;;;;;20.50;14.38;;;17.50;99.90;;;;;;5031221;28;20059;-80
2023/06/25 04:42:22;;;;;;;20.55;13.98;;;17.60;99.90;;;;;;5019993;28;20037;-80
2023/06/25 04:44:48;;;;;;;20.52;14.45;;;17.70;99.90;;;;;;5065731;28;20036;-80
2023/06/25 04:47:13;;;;;;;19.25;13.55;;;17.80;99.90;;;;;;5046078;28;20498;-80
2023/06/25 04:49:39;;;;;;;20.08;13.38;;;17.90;99.90;;;;;;5033121;28;20044;-80
2023/06/25 04:52:05;;;;;;;18.50;13.13;;;18.00;99.90;;;;;;5035616;28;20303;-80
2023/06/25 04:54:36;;;;;;;18.25;12.88;;;18.10;99.90;;;;;;5023459;28;20400;-80
2023/06/25 04:57:01;;;;;;;18.80;13.18;;;18.20;99.90;;;;;;5019939;28;20045;-80
2023/06/25 04:59:30;;;;;;;16.52;11.90;;;18.30;99.90;;;;;;5037059;28;20036;-80
2023/06/25 05:01:55;;;;;;;16.67;11.65;;;18.30;99.90;;;;;;5023187;28;20046;-80
2023/06/25 05:04:21;;;;;;;18.45;11.43;;;18.50;99.90;;;;;;5036813;28;20255;-80
2023/06/25 05:06:46;;;;;;;18.45;11.65;;;18.70;99.90;;;;;;5036857;28;20067;-80
2023/06/25 05:09:15;;;;;;;15.40;11.00;;;18.70;99.90;;;;;;5035838;28;20573;-79
2023/06/25 05:11:41;;;;;;;15.75;11.57;;;18.80;99.90;;;;;;5031902;28;20040;-80
2023/06/25 05:14:06;;;;;;;16.63;11.68;;;18.90;99.90;;;;;;5051182;28;20040;-80
2023/06/25 05:16:35;;;;;;;17.10;11.20;;;19.00;99.90;;;;;;5035447;28;20552;-80
2023/06/25 05:19:03;;;;;;;15.30;10.63;;;19.10;99.90;;;;;;5067649;28;20538;-80
2023/06/25 05:21:31;;;;;;;17.85;10.88;;;19.30;99.90;;;;;;5023177;28;20041;-80
2023/06/25 05:23:58;;;;;;;14.90;10.50;;;19.30;99.90;;;;;;5035908;28;20076;-80
2023/06/25 05:26:24;;;;;;;13.40;9.82;;;19.40;99.90;;;;;;5035277;28;20045;-80
2023/06/25 05:28:50;;;;;;;14.20;9.75;;;19.50;99.90;;;;;;5033314;28;20178;-80
2023/06/25 05:31:15;;;;;;;16.20;9.23;;;19.70;99.90;;;;;;5033725;28;20040;-80
2023/06/25 05:33:43;;;;;;;14.55;9.50;;;19.80;99.90;;;;;;5022744;28;20295;-80
2023/06/25 05:36:14;;;;;;;12.27;8.82;;;19.90;99.90;;;;;;5035003;28;20116;-80
2023/06/25 05:38:40;;;;;;;13.15;8.57;;;19.90;99.90;;;;;;5026734;28;20420;-80
2023/06/25 05:41:08;;;;;;;11.38;8.57;;;20.10;99.90;;;;;;5034576;28;20117;-80
2023/06/25 05:43:34;;;;;;;10.25;8.05;;;20.20;99.90;;;;;;5033790;28;20464;-80
2023/06/25 05:46:00;;;;;;;11.27;7.82;;;20.20;99.90;;;;;;5031240;28;20041;-80
2023/06/25 05:48:26;;;;;;;14.15;8.65;;;20.30;99.90;;;;;;5036071;28;20037;-80
2023/06/25 05:50:52;;;;;;;10.80;7.85;;;20.40;99.90;;;;;;5050500;28;20284;-80
2023/06/25 05:53:18;;;;;;;9.98;7.97;;;20.50;99.90;;;;;;5034787;28;20492;-80
2023/06/25 05:55:44;;;;;;;12.38;8.02;;;20.50;99.90;;;;;;5021121;28;20044;-80
2023/06/25 05:58:10;;;;;;;12.27;8.63;;;20.70;99.90;;;;;;5017169;28;20041;-80
2023/06/25 06:00:41;;;;;;;8.98;7.30;;;20.70;99.90;;;;;;5034504;28;20308;-80
2023/06/25 06:03:07;;;;;;;11.15;7.20;;;20.80;99.90;;;;;;5032628;28;20471;-80
2023/06/25 06:05:32;;;;;;;9.10;7.10;;;20.90;99.90;;;;;;5049485;28;20282;-80
2023/06/25 06:07:58;;;;;;;9.60;6.80;;;21.00;99.90;;;;;;5036765;28;20037;-80
2023/06/25 06:10:24;;;;;;;10.15;7.55;;;21.10;99.90;;;;;;5033109;28;20134;-80
2023/06/25 06:12:49;;;;;;;14.13;7.57;;;21.20;99.90;;;;;;5024444;28;20476;-80
2023/06/25 06:15:16;;;;;;;11.70;7.47;;;21.30;99.90;;;;;;5037007;28;20210;-80
2023/06/25 06:17:41;;;;;;;12.10;8.00;;;21.40;99.90;;;;;;5015983;28;20059;-80
2023/06/25 06:20:10;;;;;;;11.77;7.53;;;21.40;99.90;;;;;;5033993;28;20037;-80
2023/06/25 06:22:36;;;;;;;15.57;8.10;;;21.50;99.90;;;;;;5034113;28;21496;-80
2023/06/25 06:25:08;;;;;;;13.13;8.07;;;21.60;99.90;;;;;;5038229;28;20420;-80
2023/06/25 06:27:33;;;;;;;11.60;8.45;;;21.60;99.90;;;;;;5031575;28;20139;-80
2023/06/25 06:30:02;;;;;;;10.43;7.85;;;21.70;99.90;;;;;;5034616;28;20075;-80
2023/06/25 06:32:27;;;;;;;12.07;8.55;;;21.70;99.90;;;;;;5065466;28;20048;-80
2023/06/25 06:34:53;;;;;;;12.50;8.73;;;21.90;99.90;;;;;;5022809;28;20148;-80
2023/06/25 06:37:19;;;;;;;10.88;8.73;;;22.00;99.90;;;;;;5038338;28;20044;-80
2023/06/25 06:39:50;;;;;;;12.75;9.30;;;22.10;99.90;;;;;;5051927;28;20060;-80
2023/06/25 06:42:16;;;;;;;11.30;8.55;;;22.10;99.90;;;;;;5037268;28;20036;-80
2023/06/25 06:44:41;;;;;;;13.02;9.70;;;22.20;99.90;;;;;;5041145;28;20040;-80
2023/06/25 06:47:07;;;;;;;12.98;10.10;;;22.40;99.90;;;;;;5034618;28;20041;-80
2023/06/25 06:49:33;;;;;;;12.48;9.73;;;22.40;99.90;;;;;;5067608;28;20442;-80
2023/06/25 06:51:58;;;;;;;12.57;9.27;;;22.50;99.90;;;;;;5037277;28;20044;-80
2023/06/25 06:54:24;;;;;;;13.25;9.95;;;22.60;99.90;;;;;;5035202;28;20068;-80
2023/06/25 06:56:49;;;;;;;15.95;9.88;;;22.70;99.90;;;;;;5047528;28;20044;-80
2023/06/25 06:59:15;;;;;;;14.10;10.85;;;22.80;99.90;;;;;;5037417;28;20680;-80
2023/06/25 07:01:41;;;;;;;13.68;11.23;;;22.70;99.90;;;;;;5051388;28;20036;-80
2023/06/25 07:04:06;;;;;;;14.40;11.10;;;22.90;99.90;;;;;;5024681;28;20487;-80
2023/06/25 07:06:32;;;;;;;14.80;10.75;;;23.00;99.90;;;;;;5054073;28;20629;-80
2023/06/25 07:08:58;;;;;;;15.38;11.02;;;22.90;99.90;;;;;;5067966;28;20230;-80
2023/06/25 07:11:26;;;;;;;12.40;10.63;;;23.10;99.90;;;;;;5033732;28;20453;-80
2023/06/25 07:13:54;;;;;;;14.50;10.30;;;23.20;99.90;;;;;;5065551;28;20054;-80
2023/06/25 07:16:20;;;;;;;12.90;11.15;;;23.30;99.90;;;;;;5065019;28;20041;-80
2023/06/25 07:18:46;;;;;;;13.02;10.88;;;23.40;99.90;;;;;;5036938;28;20042;-80
2023/06/25 07:21:11;;;;;;;13.40;10.55;;;23.50;99.90;;;;;;5024518;28;20033;-80
2023/06/25 07:23:37;;;;;;;14.63;9.82;;;23.40;99.90;;;;;;5038030;28;20105;-80
2023/06/25 07:26:03;;;;;;;15.85;9.80;;;23.60;99.90;;;;;;5034704;28;20041;-80
2023/06/25 07:28:29;;;;;;;13.38;10.30;;;23.70;99.90;;;;;;5053400;28;20041;-80
2023/06/25 07:30:54;;;;;;;15.60;10.48;;;23.90;99.90;;;;;;5068717;28;20044;-80
2023/06/25 07:33:23;;;;;;;11.95;10.07;;;23.80;99.90;;;;;;5024440;28;20043;-80
2023/06/25 07:35:49;;;;;;;14.10;10.98;;;23.80;99.90;;;;;;5070177;28;20067;-80
2023/06/25 07:38:14;;;;;;;15.25;10.13;;;23.90;99.90;;;;;;5036148;28;20040;-80
2023/06/25 07:40:40;;;;;;;11.85;10.07;;;24.20;99.90;;;;;;5069593;28;20608;-80
2023/06/25 07:43:08;;;;;;;12.63;9.35;;;24.30;99.90;;;;;;5035965;28;20450;-80
2023/06/25 07:45:33;;;;;;;12.88;10.40;;;24.20;99.90;;;;;;5023837;28;20086;-80
2023/06/25 07:47:59;;;;;;;13.30;9.98;;;24.30;99.90;;;;;;5041105;28;20040;-80
2023/06/25 07:50:24;;;;;;;12.57;9.88;;;24.50;99.90;;;;;;5020135;28;20414;-80
2023/06/25 07:52:51;;;;;;;11.75;9.77;;;24.70;99.90;;;;;;5023140;28;20109;-80
2023/06/25 07:55:17;;;;;;;13.57;10.10;;;24.70;99.90;;;;;;5033543;28;20044;-80
2023/06/25 07:57:42;;;;;;;12.07;9.45;;;24.70;99.90;;;;;;5068444;28;20033;-80
2023/06/25 08:00:09;;;;;;;12.35;9.05;;;24.80;99.90;;;;;;5036905;28;20072;-80
2023/06/25 08:02:34;;;;;;;13.73;9.68;;;25.00;99.90;;;;;;5062038;28;20047;-81
2023/06/25 08:05:00;;;;;;;12.65;9.77;;;25.00;99.90;;;;;;5049562;28;20036;-81
2023/06/25 08:07:26;;;;;;;12.48;9.70;;;25.10;99.90;;;;;;5035384;28;20036;-80
2023/06/25 08:09:54;;;;;;;9.63;8.63;;;25.10;99.90;;;;;;5038073;28;20060;-80
2023/06/25 08:12:19;;;;;;;12.63;10.20;;;25.40;99.90;;;;;;5022256;28;20489;-80
2023/06/25 08:14:46;;;;;;;14.43;10.98;;;25.40;99.90;;;;;;5036455;28;20469;-80
2023/06/25 08:17:12;;;;;;;11.93;9.85;;;25.30;99.90;;;;;;5034423;28;20554;-80
2023/06/25 08:19:37;;;;;;;11.45;9.60;;;25.30;99.90;;;;;;5035745;28;20076;-80
2023/06/25 08:22:03;;;;;;;12.60;9.65;;;25.50;99.90;;;;;;5036560;28;20522;-80
2023/06/25 08:24:28;;;;;;;9.93;8.93;;;25.70;99.90;;;;;;5035575;28;20033;-80
2023/06/25 08:26:54;;;;;;;11.88;9.10;;;25.60;99.90;;;;;;5070085;28;20045;-80
2023/06/25 08:29:22;;;;;;;15.05;9.43;;;25.80;99.90;;;;;;5023755;28;20078;-81
2023/06/25 08:31:48;;;;;;;10.73;8.63;;;25.90;99.90;;;;;;5052510;28;20084;-81
2023/06/25 08:34:13;;;;;;;10.38;9.13;;;25.90;99.90;;;;;;5039586;28;20068;-80
2023/06/25 08:36:39;;;;;;;10.88;9.00;;;26.10;99.90;;;;;;5036588;28;20044;-81
2023/06/25 08:39:05;;;;;;;9.75;8.10;;;26.20;99.90;;;;;;5022923;28;20143;-81
2023/06/25 08:41:31;;;;;;;9.35;8.30;;;26.30;99.90;;;;;;5063889;28;20052;-80
2023/06/25 08:43:56;;;;;;;8.88;7.22;;;26.20;99.90;;;;;;5036089;28;20581;-81
2023/06/25 08:46:26;;;;;;;15.80;8.13;;;26.40;99.90;;;;;;5021733;28;20036;-80
2023/06/25 08:48:54;;;;;;;9.07;7.93;;;26.50;99.90;;;;;;5065870;28;20052;-81
2023/06/25 08:51:24;;;;;;;9.32;7.82;;;26.60;99.90;;;;;;5018270;28;20041;-81
2023/06/25 08:53:50;;;;;;;8.55;7.65;;;26.80;99.90;;;;;;5033723;28;20464;-81
2023/06/25 08:56:16;;;;;;;11.68;7.53;;;26.80;99.90;;;;;;5038387;28;20068;-81
2023/06/25 08:58:43;;;;;;;11.60;8.13;;;27.00;99.90;;;;;;5035335;28;20246;-81
2023/06/25 09:01:12;;;;;;;7.82;7.03;;;27.10;1.00;;;;;;5034162;28;20136;-81
2023/06/25 09:03:41;;;;;;;7.80;6.75;;;27.10;99.90;;;;;;5022262;28;20246;-81
2023/06/25 09:06:13;;;;;;;7.25;6.55;;;27.10;99.90;;;;;;5067731;28;20064;-81
2023/06/25 09:08:48;;;;;;;8.27;6.10;;;27.10;1.00;;;;;;5071960;28;20052;-81
2023/06/25 09:11:14;;;;;;;8.50;6.07;;;27.30;99.90;;;;;;5036189;28;20036;-81
2023/06/25 09:13:40;;;;;;;7.50;6.30;;;27.50;1.00;;;;;;5037036;28;20499;-81
2023/06/25 09:16:10;;;;;;;7.40;6.45;;;27.40;1.00;;;;;;5039011;28;20151;-81
2023/06/25 09:18:36;;;;;;;8.45;6.45;;;27.60;99.90;;;;;;5026389;28;20043;-81
2023/06/25 09:21:03;;;;;;;9.65;5.95;;;27.70;99.90;;;;;;5039236;28;20048;-81
2023/06/25 09:23:29;;;;;;;13.30;5.90;;;27.90;1.00;;;;;;5040694;28;20125;-81
2023/06/25 09:25:56;;;;;;;6.82;5.80;;;28.00;99.90;;;;;;5044970;28;20170;-81
2023/06/25 09:28:22;;;;;;;9.68;5.65;;;27.90;38.20;;;;;;5036370;28;20049;-80
2023/06/25 09:30:47;;;;;;;7.38;6.35;;;27.90;99.90;;;;;;5041959;28;20036;-81
2023/06/25 09:33:13;;;;;;;7.47;6.05;;;28.10;1.00;;;;;;5053924;28;20067;-81
2023/06/25 09:35:39;;;;;;;7.93;6.22;;;28.20;1.00;;;;;;5026278;28;20368;-80
2023/06/25 09:38:05;;;;;;;6.10;4.90;;;28.30;99.90;;;;;;5029460;28;20060;-81
2023/06/25 09:40:34;;;;;;;7.22;5.03;;;28.50;99.90;;;;;;5048466;28;20044;-81
2023/06/25 09:43:05;;;;;;;6.88;5.57;;;28.50;73.20;;;;;;5054318;28;20060;-81
2023/06/25 09:45:31;;;;;;;5.78;4.97;;;28.30;99.90;;;;;;5070211;28;20044;-81
2023/06/25 09:47:57;;;;;;;6.45;5.70;;;28.20;99.90;;;;;;5045325;28;20036;-81
2023/06/25 09:50:37;;;;;;;6.95;5.65;;;28.40;99.90;;;;;;5028329;28;20043;-81
2023/06/25 09:53:06;;;;;;;7.57;6.78;;;28.60;1.00;;;;;;5042803;28;20048;-82
2023/06/25 09:55:34;;;;;;;6.20;4.88;;;28.60;1.00;;;;;;5025870;28;20348;-82
2023/06/25 09:58:01;;;;;;;7.47;4.65;;;28.90;99.90;;;;;;5037850;28;20554;-81
2023/06/25 10:00:28;;;;;;;5.95;4.55;;;28.70;99.90;;;;;;5026486;28;20044;-81
2023/06/25 10:02:54;;;;;;;7.18;5.35;;;28.80;99.90;;;;;;5025700;28;20082;-82
2023/06/25 10:05:23;;;;;;;6.15;4.93;;;28.80;99.90;;;;;;5027844;28;20484;-81
2023/06/25 10:07:49;;;;;;;5.40;4.43;;;28.60;99.90;;;;;;5036101;28;20033;-81
2023/06/25 10:10:27;;;;;;;5.45;4.88;;;28.90;99.90;;;;;;5025529;28;20063;-81
2023/06/25 10:12:53;;;;;;;4.45;3.53;;;29.00;97.20;;;;;;5043616;28;20047;-82
2023/06/25 10:15:33;;;;;;;7.50;4.43;;;29.00;21.60;;;;;;5071411;28;20102;-81
2023/06/25 10:18:00;;;;;;;5.55;4.03;;;29.40;44.30;;;;;;5023446;28;20491;-82
2023/06/25 10:20:29;;;;;;;6.13;4.63;;;29.20;97.80;;;;;;5035608;28;20114;-81
2023/06/25 10:23:23;;;;;;;6.05;4.50;;;29.50;4.00;;;;;;5039564;28;20052;-81
2023/06/25 10:25:57;;;;;;;6.55;4.53;;;29.40;1.00;;;;;;5019207;28;20075;-81
2023/06/25 10:28:34;;;;;;;5.95;4.18;;;29.60;1.00;;;;;;5070840;28;20043;-81
2023/06/25 10:31:13;;;;;;;4.80;3.70;;;29.80;1.00;;;;;;5030384;28;20044;-81
2023/06/25 10:33:39;;;;;;;4.57;3.90;;;29.90;99.90;;;;;;5025091;28;20049;-82
2023/06/25 10:36:08;;;;;;;5.88;4.35;;;30.10;99.90;;;;;;5039304;28;20045;-82
2023/06/25 10:38:34;;;;;;;4.78;4.28;;;30.00;1.00;;;;;;5026413;28;20040;-81
2023/06/25 10:41:00;;;;;;;4.65;4.22;;;30.00;99.90;;;;;;5037964;28;20121;-82
2023/06/25 10:43:25;;;;;;;5.40;4.07;;;30.30;99.90;;;;;;5022685;28;20048;-82
2023/06/25 10:45:53;;;;;;;5.35;4.15;;;30.10;99.90;;;;;;5035001;28;20459;-81
2023/06/25 10:48:20;;;;;;;6.45;3.60;;;29.90;99.90;;;;;;5020558;28;20084;-81
2023/06/25 10:50:47;;;;;;;5.50;3.45;;;30.20;99.90;;;;;;5019491;28;20041;-81
2023/06/25 10:53:14;;;;;;;5.05;3.63;;;30.50;99.90;;;;;;5057386;28;20043;-81
2023/06/25 10:55:47;;;;;;;4.95;3.75;;;30.70;99.90;;;;;;5068007;28;20045;-81
2023/06/25 10:58:18;;;;;;;4.80;3.42;;;30.50;99.90;;;;;;5069109;28;20044;-81
2023/06/25 11:00:44;;;;;;;5.22;3.35;;;30.70;99.90;;;;;;5071628;28;20520;-82
2023/06/25 11:03:10;;;;;;;4.60;3.55;;;30.70;99.90;;;;;;5040211;28;20048;-81
2023/06/25 11:05:46;;;;;;;4.32;3.33;;;30.80;99.90;;;;;;5038419;28;20415;-81
2023/06/25 11:08:13;;;;;;;6.53;3.63;;;31.00;99.90;;;;;;5024683;28;20048;-81
2023/06/25 11:10:40;;;;;;;4.78;4.07;;;31.10;99.90;;;;;;5020304;28;20068;-80
2023/06/25 11:13:09;;;;;;;8.57;4.07;;;31.20;99.90;;;;;;5054750;28;20043;-81
2023/06/25 11:15:35;;;;;;;4.35;3.63;;;31.00;99.90;;;;;;5038698;28;20056;-81
2023/06/25 11:18:03;;;;;;;6.22;4.13;;;31.20;99.90;;;;;;5038375;28;20044;-81
2023/06/25 11:20:29;;;;;;;9.20;4.32;;;30.70;99.90;;;;;;5039249;28;20044;-81
2023/06/25 11:23:04;;;;;;;5.93;3.88;;;30.80;99.90;;;;;;5033524;28;20044;-80
2023/06/25 11:25:30;;;;;;;;;;;31.00;99.90;;;;;;5037274;28;20033;-81
2023/06/25 11:28:15;;;;;;;5.05;3.28;;;31.10;99.90;;;;;;5032563;28;19920;-81
2023/06/25 11:30:43;;;;;;;;;;;31.20;99.90;;;;;;5021412;28;20546;-81
2023/06/25 11:33:15;;;;;;;4.22;3.17;;;31.40;99.90;;;;;;5036360;28;19921;-80
2023/06/25 11:35:41;;;;;;;5.22;3.78;;;31.40;99.90;;;;;;5036435;28;20047;-81
2023/06/25 11:38:07;;;;;;;5.65;3.60;;;31.40;99.90;;;;;;5043294;28;20040;-81
2023/06/25 11:40:37;;;;;;;3.80;3.25;;;31.20;99.90;;;;;;5069464;28;20049;-81
2023/06/25 11:43:03;;;;;;;4.88;3.42;;;31.10;99.90;;;;;;5023827;28;20124;-81
2023/06/25 11:45:49;;;;;;;4.88;3.20;;;31.30;99.90;;;;;;5021881;28;20119;-81
2023/06/25 11:48:16;;;;;;;5.03;3.35;;;31.50;99.90;;;;;;5069920;28;20541;-81
2023/06/25 11:50:43;;;;;;;4.68;3.22;;;31.60;99.90;;;;;;5022806;28;20344;-81
2023/06/25 11:53:09;;;;;;;3.67;3.38;;;31.80;99.90;;;;;;5034459;28;20051;-81
2023/06/25 11:55:35;;;;;;;5.40;3.35;;;32.00;99.90;;;;;;5022453;28;20367;-81
2023/06/25 11:58:01;;;;;;;4.60;3.40;;;31.90;99.90;;;;;;5051866;28;20075;-81
2023/06/25 12:00:27;;;;;;;3.85;3.15;;;31.60;86.00;;;;;;5023488;28;20511;-81
2023/06/25 12:02:52;;;;;;;4.20;3.00;;;31.80;65.50;;;;;;5040138;28;20040;-81
2023/06/25 12:05:18;;;;;;;5.57;3.00;;;31.80;58.30;;;;;;5023114;28;20040;-81
2023/06/25 12:07:44;;;;;;;5.15;2.80;;;32.10;44.90;;;;;;5021953;28;20032;-81
2023/06/25 12:10:14;;;;;;;4.00;3.30;;;32.30;49.70;;;;;;5037614;28;20047;-81
2023/06/25 12:12:40;;;;;;;4.18;3.00;;;32.20;12.80;;;;;;5066805;28;20141;-80
2023/06/25 12:15:06;;;;;;;3.47;3.08;;;32.00;1.00;;;;;;5055381;28;20040;-81
2023/06/25 12:17:32;;;;;;;7.78;3.55;;;32.20;4.70;;;;;;5026622;28;20041;-81
2023/06/25 12:19:57;;;;;;;5.25;3.30;;;32.30;9.20;;;;;;5054101;28;20428;-81
2023/06/25 12:22:26;;;;;;;6.22;3.35;;;32.40;10.80;;;;;;5036936;28;20114;-81
2023/06/25 12:24:51;;;;;;;7.13;3.45;;;32.10;1.00;;;;;;5037994;28;20047;-81
2023/06/25 12:27:18;;;;;;;4.05;3.30;;;32.20;1.00;;;;;;5038741;28;20033;-81
2023/06/25 12:29:44;;;;;;;4.72;3.53;;;32.50;1.00;;;;;;5039417;28;20440;-81
2023/06/25 12:32:10;;;;;;;4.03;3.55;;;32.70;1.00;;;;;;5033645;28;20082;-81
2023/06/25 12:34:36;;;;;;;3.70;3.30;;;32.80;1.00;;;;;;5022674;28;20048;-81
2023/06/25 12:37:03;;;;;;;4.63;3.50;;;32.80;1.00;;;;;;5020144;28;20052;-81